Terminal Aerodrome Forecast
Issued by NWS

Home | Current Version | Previous Version | Text Only | Print | Product List | Glossary On
Versions: 1 2 3 4 5 6 7 8 9 10 11 12 13 14 15 16 17 18
000
FTUS46 KLOX 060559
TAFWJF
TAF
KWJF 060559Z 0606/0706 24015G25KT P6SM -SHRA SCT030 BKN060
     FM062000 23019G27KT P6SM -SHRA SCT040 SCT080 PROB30 0620/0622
      -TSRA BKN035 OVC070CB
     FM070200 24012KT P6SM VCSH SCT050 SCT090=

USA.gov is the U.S. government's official web portal to all federal, state and local government web resources and services.